• Join FlightAware (Why Join?)
  • Login
  • US Flag 
10:47PM EDT


 

Airport Tracker/Info


-or-


 

Live Flight TrackerFlight Track Log ✈ N978AC ✈ 18-Nov-2013 ✈ KAPF - KVRB

Flight Track Log - Related Links

Times and Time Zones

All times are in EST time to prevent confusion due to time zone crossing. See the N978AC flight status page for this flight to view local times or setup timezone preferences in your user account.

Time Position Orientation Groundspeed Altitude Reporting Facility
EST Latitude Longitude Course Direction KTS MPH feet Rate Location/Type
11:00AM 26.2631 -81.6773 42° Northeast  Level Estimated
11:01AM 26.2852 -81.6576 46° Northeast  Level Estimated
11:02AM 26.3041 -81.6341 48° Northeast  Level FlightAware Approximate
11:03AM 26.3229 -81.6105 48° Northeast  Level FlightAware Approximate
11:04AM 26.3418 -81.5870 48° Northeast  Level FlightAware Approximate
11:05AM 26.3606 -81.5634 48° Northeast  Level FlightAware Approximate
11:06AM 26.3795 -81.5398 48° Northeast  Level FlightAware Approximate
11:07AM 26.3983 -81.5162 48° Northeast  Level FlightAware Approximate
11:08AM 26.4172 -81.4927 48° Northeast  Level FlightAware Approximate
11:09AM 26.4360 -81.4690 48° Northeast  Level FlightAware Approximate
11:09AM 26.3769 -81.4803 48° Northeast 94 108 7,100  Level Miami Center
11:10AM 26.4548 -81.4454 48° Northeast  Level FlightAware Approximate
11:10AM 26.3922 -81.4556 55° Northeast 99 114 7,100  Level Miami Center
11:11AM 26.4736 -81.4218 48° Northeast  Level FlightAware Approximate
11:11AM 26.4139 -81.4308 46° Northeast 104 120 7,100  Level Miami Center
11:12AM 26.4925 -81.3982 48° Northeast  Level FlightAware Approximate
11:12AM 26.4292 -81.4106 50° Northeast 104 120 7,100  Level Miami Center
11:13AM 26.5113 -81.3746 48° Northeast  Level FlightAware Approximate
11:13AM 26.4489 -81.3858 48° Northeast 104 120 7,100  Level Miami Center
11:14AM 26.5301 -81.3510 48° Northeast  Level FlightAware Approximate
11:14AM 26.4683 -81.3633 46° Northeast 104 120 7,100  Level Miami Center
11:15AM 26.4878 -81.3386 49° Northeast 104 120 7,100  Level Miami Center
11:16AM 26.5117 -81.3117 45° Northeast 104 120 7,100  Level Miami Center
11:17AM 26.5292 -81.2867 52° Northeast 104 120 7,100  Level Miami Center
11:18AM 26.5508 -81.2619 46° Northeast 104 120 7,100  Level Miami Center
11:19AM 26.5703 -81.2394 46° Northeast 114 131 7,100  Level Miami Center
11:20AM 26.5917 -81.2169 43° Northeast 114 131 7,100  Level Miami Center
11:21AM 26.6172 -81.2017 28° Northeast 103 119 7,100  Level Miami Center
11:22AM 26.6428 -81.1864 28° Northeast 98 113 7,100  Level Miami Center
11:23AM 26.6661 -81.1711 30° Northeast 98 113 7,100 -120 Level Miami Center
11:24AM 26.6917 -81.1533 32° Northeast 98 113 6,900 -360 Descending Miami Center
11:25AM 26.7172 -81.1381 28° Northeast 98 113 6,400 -600 Descending Miami Center
11:26AM 26.7428 -81.1203 32° Northeast 98 113 5,800 -600 Descending Miami Center
11:27AM 26.7706 -81.1003 33° Northeast 98 113 5,300 -420 Descending Miami Center
11:28AM 26.7939 -81.0850 30° Northeast 98 113 5,000 -120 Descending Miami Center
11:29AM 26.8194 -81.0719 25° Northeast 98 113 5,100  Climbing Miami Center
11:30AM 26.8472 -81.0544 29° Northeast 98 113 5,100 -60 Level Miami Center
11:31AM 26.8728 -81.0367 32° Northeast 98 113 5,000 -60 Descending Miami Center
11:32AM 26.8939 -81.0211 33° Northeast 103 119 5,000  Level Miami Center
11:33AM 26.9175 -81.0033 34° Northeast 98 113 5,100  Climbing Miami Center
11:34AM 26.9450 -80.9856 30° Northeast 98 113 5,100 -60 Level Miami Center
11:35AM 26.9706 -80.9703 28° Northeast 98 113 5,000 -60 Descending Miami Center
11:36AM 26.9939 -80.9547 31° Northeast 98 113 5,000  Level Miami Center
11:37AM 27.0175 -80.9369 34° Northeast 98 113 5,100  Climbing Miami Center
11:38AM 27.0431 -80.9192 32° Northeast 98 113 5,100  Level Miami Center
11:39AM 27.0686 -80.9014 32° Northeast 98 113 5,100  Level Miami Center
11:40AM 27.0919 -80.8858 31° Northeast 98 113 5,100  Level Miami Center
11:41AM 27.1153 -80.8703 31° Northeast 98 113 5,100 -180 Level Miami Center
11:42AM 27.1408 -80.8525 32° Northeast 98 113 4,800 -420 Descending Miami Center
11:43AM 27.1686 -80.8325 33° Northeast 103 119 4,300 -420 Descending Miami Center
11:44AM 27.1942 -80.8147 32° Northeast 103 119 4,000 -180 Descending Miami Center
11:45AM 27.2197 -80.7992 28° Northeast 103 119 4,000  Level Miami Center
11:46AM 27.2431 -80.7836 31° Northeast 97 112 4,000  Level Miami Center
11:47AM 27.2706 -80.7658 30° Northeast 97 112 4,000  Level Miami Center
11:48AM 27.2942 -80.7481 34° Northeast 97 112 4,000  Level Miami Center
11:49AM 27.3217 -80.7325 27° Northeast 97 112 4,100  Climbing Miami Center
11:50AM 27.3450 -80.7194 26° Northeast 97 112 4,100 -60 Level Miami Center
11:51AM 27.3683 -80.6992 38° Northeast 97 112 4,000 -60 Descending Miami Center
11:52AM 27.3942 -80.6789 35° Northeast 102 117 4,000  Level Miami Center
11:53AM 27.4217 -80.6633 27° Northeast 102 117 4,000  Level Miami Center
11:54AM 27.4369 -80.6383 55° Northeast 96 110 4,100  Climbing Miami Center
11:55AM 27.4375 -80.6103 89° East 91 105 4,000 -60 Descending Miami Center
11:56AM 27.4447 -80.5731 78° East 107 123 4,000  Level Miami Center
11:57AM 27.4519 -80.5428 75° East 102 117 4,100  Climbing Miami Center
11:58AM 27.4569 -80.5103 80° East 102 117 4,100 -300 Level Miami Center
11:59AM 27.4639 -80.4800 76° East 107 123 3,600 -540 Descending Miami Center
12:00PM 27.4711 -80.4450 77° East 107 123 3,100 -300 Descending Miami Center
12:01PM 27.4803 -80.4103 73° East 107 123 3,000  Descending Miami Center
12:02PM 27.4872 -80.3778 76° East 102 117 3,100  Climbing Miami Center
12:03PM 27.4944 -80.3453 76° East 102 117 3,000  Descending Miami Center
12:04PM 27.4992 -80.3172 79° East 107 123 3,100  Climbing Miami Center
12:05PM 27.5083 -80.2825 73° East 107 123 3,100 -60 Level Miami Center
12:06PM 27.5217 -80.2522 64° Northeast 102 117 3,000  Descending Miami Center
12:07PM 27.5492 -80.2392 23° Northeast 96 110 3,100  Climbing Miami Center
12:08PM 27.5744 -80.2306 17° North 102 117 3,100 -120 Level Miami Center
12:09PM 27.6014 -80.2358 350° North 102 117 2,900 -600 Descending Miami Center
12:10PM 27.6067 -80.2711 280° West 91 105 2,000 -660 Descending Miami Center
12:11PM 27.6144 -80.3019 286° West 104 120 1,600 -240 Descending Miami Center
12:12PM 27.6242 -80.3303 291° West 104 120 1,600 -300 Level Miami Center
12:13PM 27.6339 -80.3542 295° West 104 120 1,100 -540 Descending Miami Center
12:14PM 27.6417 -80.3800 289° West 93 107 600 -420 Descending Miami Center
12:15PM 27.6514 -80.4086 291° West 87 100 300 -180 Descending Miami Center
12:16PM 27.6572 -80.4253 292° West 87 100 300  Level Miami Center